3VA1 weather

The Meadows Airport
Warrenton, Virginia, United States

Public forecast

Using degrees Fahrenheit for public forecast. Weather courtesy of forecast.io.

METAR (pilot weather report)

Closest report is Warrenton Fauquier Airport, 12.0 nm (22.3 km) SSE. Retrieved 2019/05/20 18:35 UTC (16 minutes ago):

KHWY 201835Z AUTO 21011G17KT 190V250 10SM SCT120 32/14 A2983 RMK AO2 T03150143

TAF (pilot weather forecast)

Closest forecast is Washington Dulles International Airport, 19.1 nm (35.3 km) ENE. Retrieved 2019/05/20 18:42 UTC (9 minutes ago):

TAF KIAD 201741Z 2018/2124 21009KT P6SM VCTS BKN050CB BKN150 FM202100 28010KT P6SM SCT050 SCT200 FM210100 32012KT P6SM FEW250 FM211200 33013G20KT P6SM SKC FM211800 32009KT P6SM FEW090